sensor_id;sensor_type;location;lat;lon;timestamp;temperature;humidity
3348;DHT22;1687;49.540;8.574;2023-05-29T00:00:28;20.00;43.40
3348;DHT22;1687;49.540;8.574;2023-05-29T00:02:54;19.90;43.40
3348;DHT22;1687;49.540;8.574;2023-05-29T00:05:20;19.80;43.40
3348;DHT22;1687;49.540;8.574;2023-05-29T00:07:46;19.70;43.50
3348;DHT22;1687;49.540;8.574;2023-05-29T00:10:12;19.60;43.50
3348;DHT22;1687;49.540;8.574;2023-05-29T00:12:38;19.60;43.60
3348;DHT22;1687;49.540;8.574;2023-05-29T00:15:05;19.50;43.60
3348;DHT22;1687;49.540;8.574;2023-05-29T00:17:31;19.50;43.80
3348;DHT22;1687;49.540;8.574;2023-05-29T00:20:01;19.40;43.80
3348;DHT22;1687;49.540;8.574;2023-05-29T00:22:35;19.40;43.90
3348;DHT22;1687;49.540;8.574;2023-05-29T00:25:06;19.40;44.10
3348;DHT22;1687;49.540;8.574;2023-05-29T00:27:33;19.40;44.10
3348;DHT22;1687;49.540;8.574;2023-05-29T00:30:00;19.50;44.20
3348;DHT22;1687;49.540;8.574;2023-05-29T00:32:26;19.50;44.20
3348;DHT22;1687;49.540;8.574;2023-05-29T00:34:53;19.50;44.20
3348;DHT22;1687;49.540;8.574;2023-05-29T00:37:19;19.50;44.30
3348;DHT22;1687;49.540;8.574;2023-05-29T00:39:49;19.50;44.30
3348;DHT22;1687;49.540;8.574;2023-05-29T00:42:14;19.50;44.30
3348;DHT22;1687;49.540;8.574;2023-05-29T00:44:40;19.50;44.30
3348;DHT22;1687;49.540;8.574;2023-05-29T00:47:06;19.50;44.30
3348;DHT22;1687;49.540;8.574;2023-05-29T00:49:33;19.50;44.30
3348;DHT22;1687;49.540;8.574;2023-05-29T00:52:01;19.60;44.40
3348;DHT22;1687;49.540;8.574;2023-05-29T00:54:28;19.60;44.40
3348;DHT22;1687;49.540;8.574;2023-05-29T00:56:57;19.50;44.30
3348;DHT22;1687;49.540;8.574;2023-05-29T00:59:23;19.50;44.30
3348;DHT22;1687;49.540;8.574;2023-05-29T01:01:52;19.50;44.30
3348;DHT22;1687;49.540;8.574;2023-05-29T01:04:20;19.30;44.10
3348;DHT22;1687;49.540;8.574;2023-05-29T01:06:46;19.20;44.20
3348;DHT22;1687;49.540;8.574;2023-05-29T01:09:12;19.00;44.20
3348;DHT22;1687;49.540;8.574;2023-05-29T01:17:32;18.80;44.50
3348;DHT22;1687;49.540;8.574;2023-05-29T01:29:18;18.90;44.90
3348;DHT22;1687;49.540;8.574;2023-05-29T01:31:46;18.90;44.90
3348;DHT22;1687;49.540;8.574;2023-05-29T01:34:13;18.90;44.90
3348;DHT22;1687;49.540;8.574;2023-05-29T01:36:38;18.90;44.90
3348;DHT22;1687;49.540;8.574;2023-05-29T01:39:04;18.90;44.80
3348;DHT22;1687;49.540;8.574;2023-05-29T01:41:31;18.70;44.60
3348;DHT22;1687;49.540;8.574;2023-05-29T01:44:00;18.40;44.60
3348;DHT22;1687;49.540;8.574;2023-05-29T01:46:28;18.30;44.90
3348;DHT22;1687;49.540;8.574;2023-05-29T01:48:55;18.20;45.10
3348;DHT22;1687;49.540;8.574;2023-05-29T01:51:21;18.00;44.80
3348;DHT22;1687;49.540;8.574;2023-05-29T01:53:46;17.80;45.20
3348;DHT22;1687;49.540;8.574;2023-05-29T01:56:12;17.70;45.10
3348;DHT22;1687;49.540;8.574;2023-05-29T01:58:39;17.50;45.30
3348;DHT22;1687;49.540;8.574;2023-05-29T02:01:09;17.30;45.50
3348;DHT22;1687;49.540;8.574;2023-05-29T02:03:35;17.20;45.60
3348;DHT22;1687;49.540;8.574;2023-05-29T02:06:01;17.10;46.00
3348;DHT22;1687;49.540;8.574;2023-05-29T02:08:27;17.20;46.30
3348;DHT22;1687;49.540;8.574;2023-05-29T02:10:53;17.20;46.40
3348;DHT22;1687;49.540;8.574;2023-05-29T02:13:19;17.20;46.40
3348;DHT22;1687;49.540;8.574;2023-05-29T02:15:46;17.00;46.20
3348;DHT22;1687;49.540;8.574;2023-05-29T02:18:13;16.80;46.40
3348;DHT22;1687;49.540;8.574;2023-05-29T02:20:40;16.70;46.80
3348;DHT22;1687;49.540;8.574;2023-05-29T02:23:08;16.80;47.20
3348;DHT22;1687;49.540;8.574;2023-05-29T02:25:35;16.80;47.10
3348;DHT22;1687;49.540;8.574;2023-05-29T02:28:01;16.70;47.00
3348;DHT22;1687;49.540;8.574;2023-05-29T02:30:28;16.50;47.10
3348;DHT22;1687;49.540;8.574;2023-05-29T02:32:54;16.40;47.50
3348;DHT22;1687;49.540;8.574;2023-05-29T02:35:20;16.20;47.50
3348;DHT22;1687;49.540;8.574;2023-05-29T02:37:51;16.10;47.70
3348;DHT22;1687;49.540;8.574;2023-05-29T02:40:18;15.90;47.70
3348;DHT22;1687;49.540;8.574;2023-05-29T02:42:45;15.90;48.20
3348;DHT22;1687;49.540;8.574;2023-05-29T02:45:11;15.90;48.20
3348;DHT22;1687;49.540;8.574;2023-05-29T02:47:37;15.70;48.00
3348;DHT22;1687;49.540;8.574;2023-05-29T02:50:04;15.60;48.30
3348;DHT22;1687;49.540;8.574;2023-05-29T02:52:31;15.50;48.30
3348;DHT22;1687;49.540;8.574;2023-05-29T02:54:57;15.40;48.70
3348;DHT22;1687;49.540;8.574;2023-05-29T02:57:24;15.30;48.80
3348;DHT22;1687;49.540;8.574;2023-05-29T02:59:50;15.30;49.00
3348;DHT22;1687;49.540;8.574;2023-05-29T03:02:17;15.20;49.10
3348;DHT22;1687;49.540;8.574;2023-05-29T03:04:44;15.20;49.30
3348;DHT22;1687;49.540;8.574;2023-05-29T03:07:09;15.10;49.40
3348;DHT22;1687;49.540;8.574;2023-05-29T03:09:35;15.10;49.60
3348;DHT22;1687;49.540;8.574;2023-05-29T03:12:01;15.00;49.70
3348;DHT22;1687;49.540;8.574;2023-05-29T03:14:27;15.00;49.90
3348;DHT22;1687;49.540;8.574;2023-05-29T03:16:53;14.90;50.00
3348;DHT22;1687;49.540;8.574;2023-05-29T03:19:20;15.00;50.30
3348;DHT22;1687;49.540;8.574;2023-05-29T03:21:45;15.00;50.30
3348;DHT22;1687;49.540;8.574;2023-05-29T03:24:11;15.00;50.40
3348;DHT22;1687;49.540;8.574;2023-05-29T03:26:39;14.90;50.40
3348;DHT22;1687;49.540;8.574;2023-05-29T03:29:05;14.90;50.50
3348;DHT22;1687;49.540;8.574;2023-05-29T03:31:31;14.80;50.50
3348;DHT22;1687;49.540;8.574;2023-05-29T03:33:58;14.80;50.80
3348;DHT22;1687;49.540;8.574;2023-05-29T03:36:24;14.90;51.00
3348;DHT22;1687;49.540;8.574;2023-05-29T03:38:49;14.90;51.00
3348;DHT22;1687;49.540;8.574;2023-05-29T03:41:15;14.90;51.00
3348;DHT22;1687;49.540;8.574;2023-05-29T03:43:41;14.90;51.20
3348;DHT22;1687;49.540;8.574;2023-05-29T03:46:06;14.90;51.20
3348;DHT22;1687;49.540;8.574;2023-05-29T03:48:32;14.90;51.30
3348;DHT22;1687;49.540;8.574;2023-05-29T03:50:58;15.00;51.30
3348;DHT22;1687;49.540;8.574;2023-05-29T03:53:24;14.90;51.30
3348;DHT22;1687;49.540;8.574;2023-05-29T03:55:49;15.00;51.40
3348;DHT22;1687;49.540;8.574;2023-05-29T03:58:15;14.90;51.30
3348;DHT22;1687;49.540;8.574;2023-05-29T04:00:41;14.90;51.50
3348;DHT22;1687;49.540;8.574;2023-05-29T04:03:06;15.00;51.70
3348;DHT22;1687;49.540;8.574;2023-05-29T04:05:33;15.10;51.70
3348;DHT22;1687;49.540;8.574;2023-05-29T04:07:58;15.20;51.90
3348;DHT22;1687;49.540;8.574;2023-05-29T04:10:24;15.20;51.80
3348;DHT22;1687;49.540;8.574;2023-05-29T04:12:50;15.30;51.90
3348;DHT22;1687;49.540;8.574;2023-05-29T04:15:16;15.30;51.90
3348;DHT22;1687;49.540;8.574;2023-05-29T04:17:41;15.40;52.00
3348;DHT22;1687;49.540;8.574;2023-05-29T04:20:07;15.40;51.90
3348;DHT22;1687;49.540;8.574;2023-05-29T04:22:37;15.40;51.80
3348;DHT22;1687;49.540;8.574;2023-05-29T04:25:04;15.30;51.80
3348;DHT22;1687;49.540;8.574;2023-05-29T04:27:30;15.30;52.00
3348;DHT22;1687;49.540;8.574;2023-05-29T04:29:57;15.40;52.20
3348;DHT22;1687;49.540;8.574;2023-05-29T04:32:23;15.40;52.70
3348;DHT22;1687;49.540;8.574;2023-05-29T04:34:50;15.40;52.20
3348;DHT22;1687;49.540;8.574;2023-05-29T04:37:16;15.40;52.20
3348;DHT22;1687;49.540;8.574;2023-05-29T04:39:42;15.40;52.30
3348;DHT22;1687;49.540;8.574;2023-05-29T04:42:08;15.40;52.30
3348;DHT22;1687;49.540;8.574;2023-05-29T04:44:34;15.40;52.50
3348;DHT22;1687;49.540;8.574;2023-05-29T04:46:59;15.50;52.50
3348;DHT22;1687;49.540;8.574;2023-05-29T04:49:28;15.60;52.60
3348;DHT22;1687;49.540;8.574;2023-05-29T04:51:54;15.60;52.60
3348;DHT22;1687;49.540;8.574;2023-05-29T04:54:22;15.70;52.70
3348;DHT22;1687;49.540;8.574;2023-05-29T04:56:48;15.80;52.80
3348;DHT22;1687;49.540;8.574;2023-05-29T04:59:14;15.90;52.80
3348;DHT22;1687;49.540;8.574;2023-05-29T05:01:40;16.00;52.80
3348;DHT22;1687;49.540;8.574;2023-05-29T05:04:08;16.10;53.00
3348;DHT22;1687;49.540;8.574;2023-05-29T05:06:34;16.30;53.00
3348;DHT22;1687;49.540;8.574;2023-05-29T05:09:00;16.40;53.00
3348;DHT22;1687;49.540;8.574;2023-05-29T05:11:27;16.50;53.10
3348;DHT22;1687;49.540;8.574;2023-05-29T05:13:53;16.50;52.90
3348;DHT22;1687;49.540;8.574;2023-05-29T05:16:18;16.60;53.10
3348;DHT22;1687;49.540;8.574;2023-05-29T05:18:44;16.60;53.10
3348;DHT22;1687;49.540;8.574;2023-05-29T05:21:10;16.80;53.30
3348;DHT22;1687;49.540;8.574;2023-05-29T05:23:37;16.90;53.20
3348;DHT22;1687;49.540;8.574;2023-05-29T05:26:02;17.00;53.30
3348;DHT22;1687;49.540;8.574;2023-05-29T05:28:28;17.00;53.20
3348;DHT22;1687;49.540;8.574;2023-05-29T05:30:54;17.10;53.20
3348;DHT22;1687;49.540;8.574;2023-05-29T05:33:20;17.20;53.20
3348;DHT22;1687;49.540;8.574;2023-05-29T05:35:46;17.20;53.00
3348;DHT22;1687;49.540;8.574;2023-05-29T05:38:11;17.20;53.10
3348;DHT22;1687;49.540;8.574;2023-05-29T05:40:37;17.20;53.10
3348;DHT22;1687;49.540;8.574;2023-05-29T05:43:03;17.30;53.10
3348;DHT22;1687;49.540;8.574;2023-05-29T05:45:29;17.30;53.00
3348;DHT22;1687;49.540;8.574;2023-05-29T05:47:56;17.40;53.30
3348;DHT22;1687;49.540;8.574;2023-05-29T05:50:21;17.40;53.20
3348;DHT22;1687;49.540;8.574;2023-05-29T05:52:47;17.50;53.30
3348;DHT22;1687;49.540;8.574;2023-05-29T05:55:13;17.60;53.30
3348;DHT22;1687;49.540;8.574;2023-05-29T05:57:38;17.70;53.30
3348;DHT22;1687;49.540;8.574;2023-05-29T06:00:05;17.80;53.30
3348;DHT22;1687;49.540;8.574;2023-05-29T06:02:37;17.90;53.50
3348;DHT22;1687;49.540;8.574;2023-05-29T06:05:04;18.00;53.40
3348;DHT22;1687;49.540;8.574;2023-05-29T06:07:32;18.10;53.30
3348;DHT22;1687;49.540;8.574;2023-05-29T06:09:58;18.20;53.60
3348;DHT22;1687;49.540;8.574;2023-05-29T06:12:24;18.40;53.60
3348;DHT22;1687;49.540;8.574;2023-05-29T06:14:50;18.50;53.50
3348;DHT22;1687;49.540;8.574;2023-05-29T06:17:16;18.70;53.50
3348;DHT22;1687;49.540;8.574;2023-05-29T06:19:41;18.70;53.40
3348;DHT22;1687;49.540;8.574;2023-05-29T06:22:07;18.80;53.50
3348;DHT22;1687;49.540;8.574;2023-05-29T06:24:33;18.90;53.60
3348;DHT22;1687;49.540;8.574;2023-05-29T06:26:58;19.10;53.60
3348;DHT22;1687;49.540;8.574;2023-05-29T06:29:24;19.20;53.50
3348;DHT22;1687;49.540;8.574;2023-05-29T06:31:49;19.20;53.30
3348;DHT22;1687;49.540;8.574;2023-05-29T06:34:15;19.20;53.40
3348;DHT22;1687;49.540;8.574;2023-05-29T06:36:41;19.30;53.40
3348;DHT22;1687;49.540;8.574;2023-05-29T06:39:07;19.40;53.30
3348;DHT22;1687;49.540;8.574;2023-05-29T06:41:33;19.50;53.20
3348;DHT22;1687;49.540;8.574;2023-05-29T06:43:58;19.60;53.30
3348;DHT22;1687;49.540;8.574;2023-05-29T06:46:25;19.70;53.30
3348;DHT22;1687;49.540;8.574;2023-05-29T06:48:51;19.90;53.30
3348;DHT22;1687;49.540;8.574;2023-05-29T06:51:17;19.90;53.10
3348;DHT22;1687;49.540;8.574;2023-05-29T06:53:43;20.00;53.10
3348;DHT22;1687;49.540;8.574;2023-05-29T06:56:09;20.00;52.80
3348;DHT22;1687;49.540;8.574;2023-05-29T06:58:35;20.10;53.00
3348;DHT22;1687;49.540;8.574;2023-05-29T07:01:00;20.10;52.90
3348;DHT22;1687;49.540;8.574;2023-05-29T07:03:26;20.20;52.90
3348;DHT22;1687;49.540;8.574;2023-05-29T07:05:53;20.30;52.80
3348;DHT22;1687;49.540;8.574;2023-05-29T07:08:19;20.40;52.80
3348;DHT22;1687;49.540;8.574;2023-05-29T07:10:44;20.50;52.60
3348;DHT22;1687;49.540;8.574;2023-05-29T07:13:14;20.50;52.50
3348;DHT22;1687;49.540;8.574;2023-05-29T07:15:40;20.50;52.40
3348;DHT22;1687;49.540;8.574;2023-05-29T07:18:06;20.50;52.30
3348;DHT22;1687;49.540;8.574;2023-05-29T07:20:31;20.60;52.20
3348;DHT22;1687;49.540;8.574;2023-05-29T07:22:57;20.70;52.40
3348;DHT22;1687;49.540;8.574;2023-05-29T07:25:23;21.00;52.40
3348;DHT22;1687;49.540;8.574;2023-05-29T07:27:48;21.20;52.20
3348;DHT22;1687;49.540;8.574;2023-05-29T07:30:14;21.30;51.80
3348;DHT22;1687;49.540;8.574;2023-05-29T07:32:40;21.30;51.70
3348;DHT22;1687;49.540;8.574;2023-05-29T07:35:06;21.50;51.70
3348;DHT22;1687;49.540;8.574;2023-05-29T07:37:32;21.60;51.50
3348;DHT22;1687;49.540;8.574;2023-05-29T07:39:59;21.70;51.50
3348;DHT22;1687;49.540;8.574;2023-05-29T07:42:25;21.80;51.30
3348;DHT22;1687;49.540;8.574;2023-05-29T07:44:50;21.90;51.40
3348;DHT22;1687;49.540;8.574;2023-05-29T07:47:16;22.00;51.30
3348;DHT22;1687;49.540;8.574;2023-05-29T07:49:42;22.20;51.30
3348;DHT22;1687;49.540;8.574;2023-05-29T07:52:08;22.30;51.00
3348;DHT22;1687;49.540;8.574;2023-05-29T07:54:33;22.30;50.80
3348;DHT22;1687;49.540;8.574;2023-05-29T07:56:59;22.50;51.00
3348;DHT22;1687;49.540;8.574;2023-05-29T07:59:26;22.60;50.80
3348;DHT22;1687;49.540;8.574;2023-05-29T08:01:51;22.70;50.50
3348;DHT22;1687;49.540;8.574;2023-05-29T08:04:17;22.80;50.30
3348;DHT22;1687;49.540;8.574;2023-05-29T08:06:43;22.90;50.20
3348;DHT22;1687;49.540;8.574;2023-05-29T08:09:09;23.00;50.00
3348;DHT22;1687;49.540;8.574;2023-05-29T08:11:36;23.20;50.00
3348;DHT22;1687;49.540;8.574;2023-05-29T08:14:03;23.30;49.90
3348;DHT22;1687;49.540;8.574;2023-05-29T08:16:28;23.40;49.60
3348;DHT22;1687;49.540;8.574;2023-05-29T08:18:54;23.40;49.30
3348;DHT22;1687;49.540;8.574;2023-05-29T08:21:20;23.50;49.30
3348;DHT22;1687;49.540;8.574;2023-05-29T08:23:46;23.70;49.20
3348;DHT22;1687;49.540;8.574;2023-05-29T08:26:11;23.80;49.00
3348;DHT22;1687;49.540;8.574;2023-05-29T08:28:38;23.80;48.90
3348;DHT22;1687;49.540;8.574;2023-05-29T08:31:04;24.00;48.90
3348;DHT22;1687;49.540;8.574;2023-05-29T08:33:30;24.20;48.90
3348;DHT22;1687;49.540;8.574;2023-05-29T08:36:00;24.30;48.50
3348;DHT22;1687;49.540;8.574;2023-05-29T08:38:26;24.30;48.40
3348;DHT22;1687;49.540;8.574;2023-05-29T08:40:52;24.30;48.20
3348;DHT22;1687;49.540;8.574;2023-05-29T08:43:21;24.40;48.20
3348;DHT22;1687;49.540;8.574;2023-05-29T08:45:50;24.40;47.90
3348;DHT22;1687;49.540;8.574;2023-05-29T08:48:20;24.50;48.00
3348;DHT22;1687;49.540;8.574;2023-05-29T08:50:48;24.60;47.80
3348;DHT22;1687;49.540;8.574;2023-05-29T08:53:17;24.70;47.70
3348;DHT22;1687;49.540;8.574;2023-05-29T08:55:44;24.60;47.40
3348;DHT22;1687;49.540;8.574;2023-05-29T08:58:17;24.60;47.40
3348;DHT22;1687;49.540;8.574;2023-05-29T09:00:47;24.70;48.00
3348;DHT22;1687;49.540;8.574;2023-05-29T09:03:13;24.80;47.40
3348;DHT22;1687;49.540;8.574;2023-05-29T09:05:40;24.90;47.20
3348;DHT22;1687;49.540;8.574;2023-05-29T09:08:11;25.00;47.30
3348;DHT22;1687;49.540;8.574;2023-05-29T09:10:41;25.00;46.90
3348;DHT22;1687;49.540;8.574;2023-05-29T09:13:09;25.00;46.70
3348;DHT22;1687;49.540;8.574;2023-05-29T09:15:35;25.00;46.50
3348;DHT22;1687;49.540;8.574;2023-05-29T09:18:02;25.00;46.50
3348;DHT22;1687;49.540;8.574;2023-05-29T09:20:27;25.00;46.50
3348;DHT22;1687;49.540;8.574;2023-05-29T09:22:57;25.20;46.40
3348;DHT22;1687;49.540;8.574;2023-05-29T09:25:24;25.40;46.40
3348;DHT22;1687;49.540;8.574;2023-05-29T09:28:12;25.60;46.30
3348;DHT22;1687;49.540;8.574;2023-05-29T09:30:42;25.70;46.00
3348;DHT22;1687;49.540;8.574;2023-05-29T09:33:10;25.90;45.90
3348;DHT22;1687;49.540;8.574;2023-05-29T09:38:17;25.80;45.20
3348;DHT22;1687;49.540;8.574;2023-05-29T09:40:44;25.80;45.10
3348;DHT22;1687;49.540;8.574;2023-05-29T09:43:13;25.80;44.90
3348;DHT22;1687;49.540;8.574;2023-05-29T09:45:44;25.90;45.00
3348;DHT22;1687;49.540;8.574;2023-05-29T09:48:26;26.00;45.00
3348;DHT22;1687;49.540;8.574;2023-05-29T09:50:52;26.10;44.90
3348;DHT22;1687;49.540;8.574;2023-05-29T09:53:23;26.20;44.50
3348;DHT22;1687;49.540;8.574;2023-05-29T09:55:51;26.20;44.30
3348;DHT22;1687;49.540;8.574;2023-05-29T09:58:18;26.30;44.20
3348;DHT22;1687;49.540;8.574;2023-05-29T10:00:45;26.20;43.80
3348;DHT22;1687;49.540;8.574;2023-05-29T10:03:12;26.20;43.80
3348;DHT22;1687;49.540;8.574;2023-05-29T10:05:42;26.20;43.60
3348;DHT22;1687;49.540;8.574;2023-05-29T10:08:13;26.20;43.50
3348;DHT22;1687;49.540;8.574;2023-05-29T10:10:45;26.20;43.40
3348;DHT22;1687;49.540;8.574;2023-05-29T10:13:13;26.20;43.40
3348;DHT22;1687;49.540;8.574;2023-05-29T10:15:41;26.30;43.30
3348;DHT22;1687;49.540;8.574;2023-05-29T10:18:20;26.30;43.10
3348;DHT22;1687;49.540;8.574;2023-05-29T10:20:49;26.30;43.20
3348;DHT22;1687;49.540;8.574;2023-05-29T10:23:22;26.40;43.20
3348;DHT22;1687;49.540;8.574;2023-05-29T10:25:58;26.50;43.10
3348;DHT22;1687;49.540;8.574;2023-05-29T10:28:33;26.50;43.00
3348;DHT22;1687;49.540;8.574;2023-05-29T10:31:09;26.70;43.00
3348;DHT22;1687;49.540;8.574;2023-05-29T10:36:18;26.80;42.70
3348;DHT22;1687;49.540;8.574;2023-05-29T10:38:48;26.90;42.70
3348;DHT22;1687;49.540;8.574;2023-05-29T10:44:01;26.90;42.40
3348;DHT22;1687;49.540;8.574;2023-05-29T10:49:20;27.00;42.10
3348;DHT22;1687;49.540;8.574;2023-05-29T10:51:47;27.00;42.10
3348;DHT22;1687;49.540;8.574;2023-05-29T10:54:19;26.90;41.80
3348;DHT22;1687;49.540;8.574;2023-05-29T10:56:55;26.90;41.70
3348;DHT22;1687;49.540;8.574;2023-05-29T10:59:26;26.70;41.60
3348;DHT22;1687;49.540;8.574;2023-05-29T11:01:54;26.60;41.60
3348;DHT22;1687;49.540;8.574;2023-05-29T11:06:46;26.60;41.80
3348;DHT22;1687;49.540;8.574;2023-05-29T11:12:23;26.60;41.60
3348;DHT22;1687;49.540;8.574;2023-05-29T11:15:08;26.60;41.60
3348;DHT22;1687;49.540;8.574;2023-05-29T11:20:09;26.50;41.50
3348;DHT22;1687;49.540;8.574;2023-05-29T11:25:23;26.50;41.50
3348;DHT22;1687;49.540;8.574;2023-05-29T11:27:49;26.40;41.40
3348;DHT22;1687;49.540;8.574;2023-05-29T11:30:18;26.50;41.50
3348;DHT22;1687;49.540;8.574;2023-05-29T11:32:45;26.50;41.60
3348;DHT22;1687;49.540;8.574;2023-05-29T11:35:13;26.60;41.50
3348;DHT22;1687;49.540;8.574;2023-05-29T11:37:43;26.60;41.30
3348;DHT22;1687;49.540;8.574;2023-05-29T11:40:11;26.50;41.00
3348;DHT22;1687;49.540;8.574;2023-05-29T11:42:45;26.50;41.10
3348;DHT22;1687;49.540;8.574;2023-05-29T11:45:15;26.60;41.30
3348;DHT22;1687;49.540;8.574;2023-05-29T11:47:58;26.70;41.00
3348;DHT22;1687;49.540;8.574;2023-05-29T11:50:32;26.70;40.90
3348;DHT22;1687;49.540;8.574;2023-05-29T11:52:59;26.70;40.80
3348;DHT22;1687;49.540;8.574;2023-05-29T11:55:26;26.70;40.90
3348;DHT22;1687;49.540;8.574;2023-05-29T11:57:57;26.70;40.80
3348;DHT22;1687;49.540;8.574;2023-05-29T12:00:24;26.80;40.90
3348;DHT22;1687;49.540;8.574;2023-05-29T12:02:51;26.90;40.80
3348;DHT22;1687;49.540;8.574;2023-05-29T12:05:17;26.90;40.70
3348;DHT22;1687;49.540;8.574;2023-05-29T12:07:51;27.00;40.70
3348;DHT22;1687;49.540;8.574;2023-05-29T12:10:21;27.10;40.60
3348;DHT22;1687;49.540;8.574;2023-05-29T12:12:48;27.10;40.50
3348;DHT22;1687;49.540;8.574;2023-05-29T12:15:15;26.90;40.30
3348;DHT22;1687;49.540;8.574;2023-05-29T12:17:43;26.90;40.40
3348;DHT22;1687;49.540;8.574;2023-05-29T12:20:11;27.00;40.40
3348;DHT22;1687;49.540;8.574;2023-05-29T12:22:38;27.00;40.20
3348;DHT22;1687;49.540;8.574;2023-05-29T12:25:14;27.10;40.30
3348;DHT22;1687;49.540;8.574;2023-05-29T12:27:46;27.40;40.30
3348;DHT22;1687;49.540;8.574;2023-05-29T12:32:44;27.70;40.00
3348;DHT22;1687;49.540;8.574;2023-05-29T12:35:19;27.80;39.90
3348;DHT22;1687;49.540;8.574;2023-05-29T12:38:02;27.90;39.60
3348;DHT22;1687;49.540;8.574;2023-05-29T12:40:31;27.90;39.40
3348;DHT22;1687;49.540;8.574;2023-05-29T12:43:06;27.70;39.20
3348;DHT22;1687;49.540;8.574;2023-05-29T12:45:34;27.70;39.40
3348;DHT22;1687;49.540;8.574;2023-05-29T12:50:36;27.90;39.50
3348;DHT22;1687;49.540;8.574;2023-05-29T12:53:08;28.00;40.00
3348;DHT22;1687;49.540;8.574;2023-05-29T12:55:39;28.10;39.20
3348;DHT22;1687;49.540;8.574;2023-05-29T12:58:10;28.20;39.00
3348;DHT22;1687;49.540;8.574;2023-05-29T13:00:39;28.20;38.80
3348;DHT22;1687;49.540;8.574;2023-05-29T13:03:06;28.30;38.80
3348;DHT22;1687;49.540;8.574;2023-05-29T13:05:33;28.30;38.60
3348;DHT22;1687;49.540;8.574;2023-05-29T13:07:58;28.30;38.30
3348;DHT22;1687;49.540;8.574;2023-05-29T13:10:25;28.10;38.20
3348;DHT22;1687;49.540;8.574;2023-05-29T13:12:53;28.00;38.20
3348;DHT22;1687;49.540;8.574;2023-05-29T13:15:21;28.10;38.20
3348;DHT22;1687;49.540;8.574;2023-05-29T13:17:48;28.40;38.30
3348;DHT22;1687;49.540;8.574;2023-05-29T13:20:14;28.50;38.00
3348;DHT22;1687;49.540;8.574;2023-05-29T13:22:41;28.70;38.00
3348;DHT22;1687;49.540;8.574;2023-05-29T13:25:10;28.90;37.80
3348;DHT22;1687;49.540;8.574;2023-05-29T13:27:38;29.20;37.80
3348;DHT22;1687;49.540;8.574;2023-05-29T13:30:07;29.60;37.80
3348;DHT22;1687;49.540;8.574;2023-05-29T13:32:34;30.20;37.80
3348;DHT22;1687;49.540;8.574;2023-05-29T13:35:00;31.00;37.60
3348;DHT22;1687;49.540;8.574;2023-05-29T13:37:26;32.10;37.50
3348;DHT22;1687;49.540;8.574;2023-05-29T13:39:53;33.40;37.40
3348;DHT22;1687;49.540;8.574;2023-05-29T13:42:19;34.10;36.20
3348;DHT22;1687;49.540;8.574;2023-05-29T13:44:46;35.00;36.10
3348;DHT22;1687;49.540;8.574;2023-05-29T13:47:16;35.80;35.00
3348;DHT22;1687;49.540;8.574;2023-05-29T13:49:42;36.30;34.60
3348;DHT22;1687;49.540;8.574;2023-05-29T13:52:07;36.90;34.20
3348;DHT22;1687;49.540;8.574;2023-05-29T13:54:33;37.50;33.90
3348;DHT22;1687;49.540;8.574;2023-05-29T13:57:04;38.40;33.80
3348;DHT22;1687;49.540;8.574;2023-05-29T13:59:34;39.00;33.20
3348;DHT22;1687;49.540;8.574;2023-05-29T14:02:01;38.80;31.80
3348;DHT22;1687;49.540;8.574;2023-05-29T14:04:29;38.30;31.10
3348;DHT22;1687;49.540;8.574;2023-05-29T14:06:58;38.20;31.50
3348;DHT22;1687;49.540;8.574;2023-05-29T14:09:24;38.40;31.50
3348;DHT22;1687;49.540;8.574;2023-05-29T14:11:54;39.00;31.20
3348;DHT22;1687;49.540;8.574;2023-05-29T14:14:20;39.50;31.00
3348;DHT22;1687;49.540;8.574;2023-05-29T14:16:47;40.10;31.00
3348;DHT22;1687;49.540;8.574;2023-05-29T14:19:13;41.10;31.10
3348;DHT22;1687;49.540;8.574;2023-05-29T14:21:39;41.80;30.40
3348;DHT22;1687;49.540;8.574;2023-05-29T14:24:05;42.70;30.40
3348;DHT22;1687;49.540;8.574;2023-05-29T14:26:31;43.00;29.50
3348;DHT22;1687;49.540;8.574;2023-05-29T14:28:56;43.00;29.40
3348;DHT22;1687;49.540;8.574;2023-05-29T14:31:22;42.80;29.00
3348;DHT22;1687;49.540;8.574;2023-05-29T14:33:47;42.40;28.60
3348;DHT22;1687;49.540;8.574;2023-05-29T14:36:13;42.30;28.70
3348;DHT22;1687;49.540;8.574;2023-05-29T14:38:39;43.10;28.80
3348;DHT22;1687;49.540;8.574;2023-05-29T14:41:05;44.00;28.70
3348;DHT22;1687;49.540;8.574;2023-05-29T14:43:32;44.50;28.10
3348;DHT22;1687;49.540;8.574;2023-05-29T14:45:58;44.30;27.80
3348;DHT22;1687;49.540;8.574;2023-05-29T14:48:23;44.10;27.60
3348;DHT22;1687;49.540;8.574;2023-05-29T14:50:49;44.70;28.00
3348;DHT22;1687;49.540;8.574;2023-05-29T14:53:15;44.80;27.30
3348;DHT22;1687;49.540;8.574;2023-05-29T14:55:40;44.70;27.10
3348;DHT22;1687;49.540;8.574;2023-05-29T14:58:06;45.10;27.40
3348;DHT22;1687;49.540;8.574;2023-05-29T15:00:32;46.00;27.50
3348;DHT22;1687;49.540;8.574;2023-05-29T15:02:58;46.70;27.00
3348;DHT22;1687;49.540;8.574;2023-05-29T15:05:25;46.90;26.80
3348;DHT22;1687;49.540;8.574;2023-05-29T15:07:52;47.30;26.50
3348;DHT22;1687;49.540;8.574;2023-05-29T15:10:20;47.60;26.50
3348;DHT22;1687;49.540;8.574;2023-05-29T15:12:46;47.80;26.50
3348;DHT22;1687;49.540;8.574;2023-05-29T15:15:15;48.30;26.50
3348;DHT22;1687;49.540;8.574;2023-05-29T15:17:41;48.20;25.80
3348;DHT22;1687;49.540;8.574;2023-05-29T15:20:08;47.40;25.60
3348;DHT22;1687;49.540;8.574;2023-05-29T15:22:34;46.60;25.60
3348;DHT22;1687;49.540;8.574;2023-05-29T15:25:00;46.10;25.80
3348;DHT22;1687;49.540;8.574;2023-05-29T15:27:26;46.10;26.00
3348;DHT22;1687;49.540;8.574;2023-05-29T15:30:11;45.80;25.50
3348;DHT22;1687;49.540;8.574;2023-05-29T15:32:45;45.20;25.30
3348;DHT22;1687;49.540;8.574;2023-05-29T15:35:15;44.80;25.70
3348;DHT22;1687;49.540;8.574;2023-05-29T15:37:44;44.90;25.50
3348;DHT22;1687;49.540;8.574;2023-05-29T15:40:10;44.40;25.30
3348;DHT22;1687;49.540;8.574;2023-05-29T15:42:36;44.00;25.40
3348;DHT22;1687;49.540;8.574;2023-05-29T15:45:03;44.00;25.60
3348;DHT22;1687;49.540;8.574;2023-05-29T15:47:29;43.90;25.40
3348;DHT22;1687;49.540;8.574;2023-05-29T15:49:56;43.30;25.40
3348;DHT22;1687;49.540;8.574;2023-05-29T15:52:22;43.40;25.90
3348;DHT22;1687;49.540;8.574;2023-05-29T15:54:49;44.00;26.30
3348;DHT22;1687;49.540;8.574;2023-05-29T15:57:15;44.60;26.20
3348;DHT22;1687;49.540;8.574;2023-05-29T15:59:40;44.60;25.60
3348;DHT22;1687;49.540;8.574;2023-05-29T16:02:06;42.40;24.90
3348;DHT22;1687;49.540;8.574;2023-05-29T16:04:32;40.10;25.20
3348;DHT22;1687;49.540;8.574;2023-05-29T16:06:58;38.30;25.90
3348;DHT22;1687;49.540;8.574;2023-05-29T16:09:23;37.20;26.40
3348;DHT22;1687;49.540;8.574;2023-05-29T16:11:49;36.10;26.50
3348;DHT22;1687;49.540;8.574;2023-05-29T16:14:15;35.10;26.90
3348;DHT22;1687;49.540;8.574;2023-05-29T16:16:41;34.20;27.20
3348;DHT22;1687;49.540;8.574;2023-05-29T16:19:06;33.60;27.80
3348;DHT22;1687;49.540;8.574;2023-05-29T16:21:33;33.20;28.10
3348;DHT22;1687;49.540;8.574;2023-05-29T16:23:59;32.70;28.40
3348;DHT22;1687;49.540;8.574;2023-05-29T16:26:26;32.00;28.50
3348;DHT22;1687;49.540;8.574;2023-05-29T16:28:54;31.30;29.00
3348;DHT22;1687;49.540;8.574;2023-05-29T16:31:20;30.80;29.40
3348;DHT22;1687;49.540;8.574;2023-05-29T16:33:46;30.60;29.80
3348;DHT22;1687;49.540;8.574;2023-05-29T16:36:11;30.40;30.00
3348;DHT22;1687;49.540;8.574;2023-05-29T16:38:37;30.30;30.30
3348;DHT22;1687;49.540;8.574;2023-05-29T16:41:03;30.30;30.60
3348;DHT22;1687;49.540;8.574;2023-05-29T16:43:29;30.10;30.70